Bond, Kentucky
Current Conditions -  °F | °C
As of 5:53 AM on Thursday 18 Dec 2014 (Local Time) from KLOZ Reporting Station
Scattered Clouds Scattered Clouds  
Wind Chill: 28°   Ceiling: Unl
Heat Index: 28°   Visibility: 8mi
Dew Point: 24°   Wind: 3mph
Humidity: 85%   Direction: 20°NNE
Pressure: 30.22"   Gusts: NA
Location:  37.2945°N, 83.9615°W
Report Text: KLOZ 181053Z AUTO 02003KT 8SM SCT120 M02/M04 A3022 RMK AO2 SLP243 T10221044
Loading
Personal Weather Stations






























Interactive Weather Map New forecast layout! Learn more

10-Day Weather Forecast

Advertisements
Track Severe Weather on mobile